sensor_id;sensor_type;location;lat;lon;timestamp;P1;durP1;ratioP1;P2;durP2;ratioP2
45402;SDS011;47427;51.976;5.326;2023-08-06T00:01:06;20.35;;;19.00;;
45402;SDS011;47427;51.976;5.326;2023-08-06T00:04:09;21.17;;;19.77;;
45402;SDS011;47427;51.976;5.326;2023-08-06T00:07:10;21.30;;;19.80;;
45402;SDS011;47427;51.976;5.326;2023-08-06T00:10:13;22.13;;;20.50;;
45402;SDS011;47427;51.976;5.326;2023-08-06T00:13:16;21.73;;;20.23;;
45402;SDS011;47427;51.976;5.326;2023-08-06T00:16:19;21.02;;;19.63;;
45402;SDS011;47427;51.976;5.326;2023-08-06T00:19:21;21.15;;;19.70;;
45402;SDS011;47427;51.976;5.326;2023-08-06T00:22:24;21.50;;;20.00;;
45402;SDS011;47427;51.976;5.326;2023-08-06T00:25:27;21.23;;;19.83;;
45402;SDS011;47427;51.976;5.326;2023-08-06T00:28:30;21.83;;;20.00;;
45402;SDS011;47427;51.976;5.326;2023-08-06T00:31:32;21.50;;;20.10;;
45402;SDS011;47427;51.976;5.326;2023-08-06T00:34:35;22.67;;;21.10;;
45402;SDS011;47427;51.976;5.326;2023-08-06T00:37:38;20.77;;;19.38;;
45402;SDS011;47427;51.976;5.326;2023-08-06T00:40:41;22.40;;;20.90;;
45402;SDS011;47427;51.976;5.326;2023-08-06T00:43:45;21.10;;;19.70;;
45402;SDS011;47427;51.976;5.326;2023-08-06T00:46:48;22.00;;;20.30;;
45402;SDS011;47427;51.976;5.326;2023-08-06T00:49:51;20.88;;;19.30;;
45402;SDS011;47427;51.976;5.326;2023-08-06T00:52:54;20.90;;;19.55;;
45402;SDS011;47427;51.976;5.326;2023-08-06T00:55:59;20.95;;;19.63;;
45402;SDS011;47427;51.976;5.326;2023-08-06T00:59:05;21.13;;;19.55;;
45402;SDS011;47427;51.976;5.326;2023-08-06T01:02:08;21.63;;;20.05;;
45402;SDS011;47427;51.976;5.326;2023-08-06T01:05:11;21.65;;;20.08;;
45402;SDS011;47427;51.976;5.326;2023-08-06T01:11:54;21.17;;;19.58;;
45402;SDS011;47427;51.976;5.326;2023-08-06T01:15:20;20.60;;;18.95;;
45402;SDS011;47427;51.976;5.326;2023-08-06T01:18:29;21.23;;;19.83;;
45402;SDS011;47427;51.976;5.326;2023-08-06T01:21:32;20.42;;;19.02;;
45402;SDS011;47427;51.976;5.326;2023-08-06T01:24:35;21.52;;;20.13;;
45402;SDS011;47427;51.976;5.326;2023-08-06T01:27:43;20.67;;;19.33;;
45402;SDS011;47427;51.976;5.326;2023-08-06T01:30:50;20.83;;;19.30;;
45402;SDS011;47427;51.976;5.326;2023-08-06T01:36:59;22.45;;;19.75;;
45402;SDS011;47427;51.976;5.326;2023-08-06T01:40:09;22.23;;;20.70;;
45402;SDS011;47427;51.976;5.326;2023-08-06T01:43:16;21.33;;;19.73;;
45402;SDS011;47427;51.976;5.326;2023-08-06T01:46:17;22.27;;;20.33;;
45402;SDS011;47427;51.976;5.326;2023-08-06T01:49:20;21.65;;;20.05;;
45402;SDS011;47427;51.976;5.326;2023-08-06T01:52:23;20.73;;;19.33;;
45402;SDS011;47427;51.976;5.326;2023-08-06T01:55:28;20.92;;;19.63;;
45402;SDS011;47427;51.976;5.326;2023-08-06T01:58:33;21.42;;;19.88;;
45402;SDS011;47427;51.976;5.326;2023-08-06T02:01:37;21.92;;;20.42;;
45402;SDS011;47427;51.976;5.326;2023-08-06T02:04:40;21.92;;;20.42;;
45402;SDS011;47427;51.976;5.326;2023-08-06T02:07:43;23.08;;;21.02;;
45402;SDS011;47427;51.976;5.326;2023-08-06T02:10:45;20.20;;;19.00;;
45402;SDS011;47427;51.976;5.326;2023-08-06T02:13:47;22.05;;;20.48;;
45402;SDS011;47427;51.976;5.326;2023-08-06T02:16:53;22.85;;;20.95;;
45402;SDS011;47427;51.976;5.326;2023-08-06T02:19:56;23.27;;;21.77;;
45402;SDS011;47427;51.976;5.326;2023-08-06T02:22:57;24.20;;;22.33;;
45402;SDS011;47427;51.976;5.326;2023-08-06T02:26:01;24.77;;;22.65;;
45402;SDS011;47427;51.976;5.326;2023-08-06T02:29:05;24.40;;;22.67;;
45402;SDS011;47427;51.976;5.326;2023-08-06T02:32:10;24.67;;;22.85;;
45402;SDS011;47427;51.976;5.326;2023-08-06T02:35:12;26.88;;;24.52;;
45402;SDS011;47427;51.976;5.326;2023-08-06T02:38:15;26.48;;;24.45;;
45402;SDS011;47427;51.976;5.326;2023-08-06T02:41:18;25.98;;;24.23;;
45402;SDS011;47427;51.976;5.326;2023-08-06T02:44:22;25.85;;;23.85;;
45402;SDS011;47427;51.976;5.326;2023-08-06T02:47:24;28.33;;;25.83;;
45402;SDS011;47427;51.976;5.326;2023-08-06T02:50:27;26.75;;;24.80;;
45402;SDS011;47427;51.976;5.326;2023-08-06T02:53:29;27.90;;;25.70;;
45402;SDS011;47427;51.976;5.326;2023-08-06T02:56:36;26.10;;;24.02;;
45402;SDS011;47427;51.976;5.326;2023-08-06T02:59:50;28.15;;;26.10;;
45402;SDS011;47427;51.976;5.326;2023-08-06T03:02:55;28.75;;;26.48;;
45402;SDS011;47427;51.976;5.326;2023-08-06T03:06:04;28.90;;;26.50;;
45402;SDS011;47427;51.976;5.326;2023-08-06T03:09:14;28.30;;;26.02;;
45402;SDS011;47427;51.976;5.326;2023-08-06T03:12:16;29.40;;;26.77;;
45402;SDS011;47427;51.976;5.326;2023-08-06T03:15:17;27.23;;;25.20;;
45402;SDS011;47427;51.976;5.326;2023-08-06T03:18:20;30.25;;;27.77;;
45402;SDS011;47427;51.976;5.326;2023-08-06T03:21:25;26.87;;;24.93;;
45402;SDS011;47427;51.976;5.326;2023-08-06T03:24:28;26.80;;;24.80;;
45402;SDS011;47427;51.976;5.326;2023-08-06T03:27:31;26.42;;;24.50;;
45402;SDS011;47427;51.976;5.326;2023-08-06T03:30:32;29.90;;;27.60;;
45402;SDS011;47427;51.976;5.326;2023-08-06T03:33:36;29.52;;;27.30;;
45402;SDS011;47427;51.976;5.326;2023-08-06T03:36:43;27.05;;;25.05;;
45402;SDS011;47427;51.976;5.326;2023-08-06T03:39:46;27.30;;;25.10;;
45402;SDS011;47427;51.976;5.326;2023-08-06T03:42:49;27.05;;;25.10;;
45402;SDS011;47427;51.976;5.326;2023-08-06T03:45:51;28.45;;;26.30;;
45402;SDS011;47427;51.976;5.326;2023-08-06T03:48:54;28.80;;;26.67;;
45402;SDS011;47427;51.976;5.326;2023-08-06T03:52:00;31.25;;;28.65;;
45402;SDS011;47427;51.976;5.326;2023-08-06T03:55:03;29.52;;;27.42;;
45402;SDS011;47427;51.976;5.326;2023-08-06T03:58:04;30.63;;;28.42;;
45402;SDS011;47427;51.976;5.326;2023-08-06T04:01:07;29.65;;;27.50;;
45402;SDS011;47427;51.976;5.326;2023-08-06T04:04:17;30.95;;;28.35;;
45402;SDS011;47427;51.976;5.326;2023-08-06T04:07:20;30.23;;;27.70;;
45402;SDS011;47427;51.976;5.326;2023-08-06T04:10:22;33.03;;;30.33;;
45402;SDS011;47427;51.976;5.326;2023-08-06T04:13:24;34.17;;;31.27;;
45402;SDS011;47427;51.976;5.326;2023-08-06T04:16:27;30.10;;;27.60;;
45402;SDS011;47427;51.976;5.326;2023-08-06T04:19:30;31.80;;;29.42;;
45402;SDS011;47427;51.976;5.326;2023-08-06T04:22:31;33.83;;;31.05;;
45402;SDS011;47427;51.976;5.326;2023-08-06T04:25:34;32.30;;;29.90;;
45402;SDS011;47427;51.976;5.326;2023-08-06T04:28:37;40.10;;;36.30;;
45402;SDS011;47427;51.976;5.326;2023-08-06T04:31:40;33.35;;;30.40;;
45402;SDS011;47427;51.976;5.326;2023-08-06T04:34:42;32.90;;;30.25;;
45402;SDS011;47427;51.976;5.326;2023-08-06T04:37:45;36.28;;;32.95;;
45402;SDS011;47427;51.976;5.326;2023-08-06T04:40:48;30.42;;;27.85;;
45402;SDS011;47427;51.976;5.326;2023-08-06T04:43:52;30.17;;;27.58;;
45402;SDS011;47427;51.976;5.326;2023-08-06T04:46:53;30.55;;;28.25;;
45402;SDS011;47427;51.976;5.326;2023-08-06T04:49:56;33.10;;;30.40;;
45402;SDS011;47427;51.976;5.326;2023-08-06T04:52:59;31.92;;;29.30;;
45402;SDS011;47427;51.976;5.326;2023-08-06T04:56:02;31.10;;;28.80;;
45402;SDS011;47427;51.976;5.326;2023-08-06T04:59:04;29.67;;;27.40;;
45402;SDS011;47427;51.976;5.326;2023-08-06T05:02:07;31.73;;;29.13;;
45402;SDS011;47427;51.976;5.326;2023-08-06T05:05:10;30.27;;;27.98;;
45402;SDS011;47427;51.976;5.326;2023-08-06T05:08:14;31.33;;;28.85;;
45402;SDS011;47427;51.976;5.326;2023-08-06T05:11:19;31.30;;;29.05;;
45402;SDS011;47427;51.976;5.326;2023-08-06T05:14:22;32.95;;;30.25;;
45402;SDS011;47427;51.976;5.326;2023-08-06T05:17:25;33.33;;;30.83;;
45402;SDS011;47427;51.976;5.326;2023-08-06T05:20:28;34.03;;;31.48;;
45402;SDS011;47427;51.976;5.326;2023-08-06T05:23:31;33.08;;;30.52;;
45402;SDS011;47427;51.976;5.326;2023-08-06T05:26:34;33.17;;;30.60;;
45402;SDS011;47427;51.976;5.326;2023-08-06T05:29:37;31.77;;;29.38;;
45402;SDS011;47427;51.976;5.326;2023-08-06T05:32:40;31.92;;;29.63;;
45402;SDS011;47427;51.976;5.326;2023-08-06T05:35:42;32.55;;;29.77;;
45402;SDS011;47427;51.976;5.326;2023-08-06T05:38:45;32.25;;;29.92;;
45402;SDS011;47427;51.976;5.326;2023-08-06T05:41:48;32.53;;;30.13;;
45402;SDS011;47427;51.976;5.326;2023-08-06T05:44:52;32.20;;;29.70;;
45402;SDS011;47427;51.976;5.326;2023-08-06T05:47:55;30.92;;;28.60;;
45402;SDS011;47427;51.976;5.326;2023-08-06T05:51:00;32.08;;;29.80;;
45402;SDS011;47427;51.976;5.326;2023-08-06T05:54:03;33.80;;;31.15;;
45402;SDS011;47427;51.976;5.326;2023-08-06T05:57:05;36.88;;;33.60;;
45402;SDS011;47427;51.976;5.326;2023-08-06T06:00:09;37.08;;;33.42;;
45402;SDS011;47427;51.976;5.326;2023-08-06T06:03:15;33.67;;;31.17;;
45402;SDS011;47427;51.976;5.326;2023-08-06T06:06:18;35.42;;;32.78;;
45402;SDS011;47427;51.976;5.326;2023-08-06T06:09:22;38.17;;;34.85;;
45402;SDS011;47427;51.976;5.326;2023-08-06T06:12:25;37.13;;;34.05;;
45402;SDS011;47427;51.976;5.326;2023-08-06T06:15:28;35.97;;;33.25;;
45402;SDS011;47427;51.976;5.326;2023-08-06T06:18:31;35.55;;;32.95;;
45402;SDS011;47427;51.976;5.326;2023-08-06T06:21:34;37.28;;;34.08;;
45402;SDS011;47427;51.976;5.326;2023-08-06T06:24:36;36.42;;;33.38;;
45402;SDS011;47427;51.976;5.326;2023-08-06T06:27:59;35.13;;;32.55;;
45402;SDS011;47427;51.976;5.326;2023-08-06T06:31:02;35.75;;;32.97;;
45402;SDS011;47427;51.976;5.326;2023-08-06T06:34:05;35.13;;;32.42;;
45402;SDS011;47427;51.976;5.326;2023-08-06T06:37:07;34.28;;;31.75;;
45402;SDS011;47427;51.976;5.326;2023-08-06T06:40:10;33.63;;;31.20;;
45402;SDS011;47427;51.976;5.326;2023-08-06T06:43:13;35.17;;;32.45;;
45402;SDS011;47427;51.976;5.326;2023-08-06T06:46:16;33.45;;;30.73;;
45402;SDS011;47427;51.976;5.326;2023-08-06T06:49:17;32.70;;;30.30;;
45402;SDS011;47427;51.976;5.326;2023-08-06T06:52:20;33.90;;;31.00;;
45402;SDS011;47427;51.976;5.326;2023-08-06T06:55:23;30.38;;;28.17;;
45402;SDS011;47427;51.976;5.326;2023-08-06T06:58:26;29.58;;;27.48;;
45402;SDS011;47427;51.976;5.326;2023-08-06T07:01:27;29.13;;;27.13;;
45402;SDS011;47427;51.976;5.326;2023-08-06T07:04:30;28.25;;;26.35;;
45402;SDS011;47427;51.976;5.326;2023-08-06T07:07:33;29.20;;;26.70;;
45402;SDS011;47427;51.976;5.326;2023-08-06T07:10:37;27.25;;;25.48;;
45402;SDS011;47427;51.976;5.326;2023-08-06T07:16:45;20.45;;;19.25;;
45402;SDS011;47427;51.976;5.326;2023-08-06T07:19:47;18.42;;;17.50;;
45402;SDS011;47427;51.976;5.326;2023-08-06T07:22:51;19.13;;;18.02;;
45402;SDS011;47427;51.976;5.326;2023-08-06T07:25:53;18.92;;;17.92;;
45402;SDS011;47427;51.976;5.326;2023-08-06T07:28:55;19.45;;;18.35;;
45402;SDS011;47427;51.976;5.326;2023-08-06T07:31:58;19.30;;;18.10;;
45402;SDS011;47427;51.976;5.326;2023-08-06T07:35:01;19.08;;;17.88;;
45402;SDS011;47427;51.976;5.326;2023-08-06T07:38:04;20.08;;;18.88;;
45402;SDS011;47427;51.976;5.326;2023-08-06T07:41:06;19.42;;;18.42;;
45402;SDS011;47427;51.976;5.326;2023-08-06T07:44:10;19.63;;;18.25;;
45402;SDS011;47427;51.976;5.326;2023-08-06T07:47:32;20.83;;;19.40;;
45402;SDS011;47427;51.976;5.326;2023-08-06T07:50:33;21.25;;;19.70;;
45402;SDS011;47427;51.976;5.326;2023-08-06T07:53:35;22.27;;;20.88;;
45402;SDS011;47427;51.976;5.326;2023-08-06T07:56:38;21.70;;;20.30;;
45402;SDS011;47427;51.976;5.326;2023-08-06T07:59:59;21.55;;;20.15;;
45402;SDS011;47427;51.976;5.326;2023-08-06T08:03:14;21.55;;;20.10;;
45402;SDS011;47427;51.976;5.326;2023-08-06T08:06:17;20.98;;;19.80;;
45402;SDS011;47427;51.976;5.326;2023-08-06T08:09:20;21.05;;;19.80;;
45402;SDS011;47427;51.976;5.326;2023-08-06T08:12:23;21.85;;;20.55;;
45402;SDS011;47427;51.976;5.326;2023-08-06T08:15:25;21.10;;;19.90;;
45402;SDS011;47427;51.976;5.326;2023-08-06T08:18:28;22.08;;;20.50;;
45402;SDS011;47427;51.976;5.326;2023-08-06T08:21:33;22.50;;;20.90;;
45402;SDS011;47427;51.976;5.326;2023-08-06T08:24:37;23.23;;;21.48;;
45402;SDS011;47427;51.976;5.326;2023-08-06T08:27:39;22.60;;;20.98;;
45402;SDS011;47427;51.976;5.326;2023-08-06T08:30:42;22.27;;;20.92;;
45402;SDS011;47427;51.976;5.326;2023-08-06T08:33:44;23.05;;;21.55;;
45402;SDS011;47427;51.976;5.326;2023-08-06T08:37:06;24.45;;;22.27;;
45402;SDS011;47427;51.976;5.326;2023-08-06T08:40:09;24.13;;;22.23;;
45402;SDS011;47427;51.976;5.326;2023-08-06T08:43:13;23.08;;;21.58;;
45402;SDS011;47427;51.976;5.326;2023-08-06T08:46:19;23.10;;;21.45;;
45402;SDS011;47427;51.976;5.326;2023-08-06T08:49:40;23.05;;;21.45;;
45402;SDS011;47427;51.976;5.326;2023-08-06T09:02:46;23.55;;;21.95;;
45402;SDS011;47427;51.976;5.326;2023-08-06T09:05:51;22.93;;;21.57;;
45402;SDS011;47427;51.976;5.326;2023-08-06T09:09:04;23.92;;;22.33;;
45402;SDS011;47427;51.976;5.326;2023-08-06T09:12:14;24.98;;;23.17;;
45402;SDS011;47427;51.976;5.326;2023-08-06T09:15:19;24.88;;;23.15;;
45402;SDS011;47427;51.976;5.326;2023-08-06T09:18:26;25.35;;;23.23;;
45402;SDS011;47427;51.976;5.326;2023-08-06T09:21:30;25.35;;;23.55;;
45402;SDS011;47427;51.976;5.326;2023-08-06T09:24:33;24.83;;;22.88;;
45402;SDS011;47427;51.976;5.326;2023-08-06T09:27:40;26.52;;;24.30;;
45402;SDS011;47427;51.976;5.326;2023-08-06T09:30:42;25.77;;;23.98;;
45402;SDS011;47427;51.976;5.326;2023-08-06T09:33:45;25.65;;;23.65;;
45402;SDS011;47427;51.976;5.326;2023-08-06T09:36:53;24.90;;;23.03;;
45402;SDS011;47427;51.976;5.326;2023-08-06T09:39:56;25.15;;;23.45;;
45402;SDS011;47427;51.976;5.326;2023-08-06T09:42:59;25.33;;;23.48;;
45402;SDS011;47427;51.976;5.326;2023-08-06T09:46:02;25.58;;;23.42;;
45402;SDS011;47427;51.976;5.326;2023-08-06T09:49:14;24.05;;;22.35;;
45402;SDS011;47427;51.976;5.326;2023-08-06T09:52:17;24.05;;;22.40;;
45402;SDS011;47427;51.976;5.326;2023-08-06T09:55:21;23.98;;;22.15;;
45402;SDS011;47427;51.976;5.326;2023-08-06T09:58:25;23.55;;;21.90;;
45402;SDS011;47427;51.976;5.326;2023-08-06T10:01:28;24.17;;;22.35;;
45402;SDS011;47427;51.976;5.326;2023-08-06T10:04:30;24.30;;;22.50;;
45402;SDS011;47427;51.976;5.326;2023-08-06T10:07:34;23.75;;;22.00;;
45402;SDS011;47427;51.976;5.326;2023-08-06T10:10:38;24.50;;;22.20;;
45402;SDS011;47427;51.976;5.326;2023-08-06T10:13:40;23.58;;;21.63;;
45402;SDS011;47427;51.976;5.326;2023-08-06T10:16:43;23.40;;;21.65;;
45402;SDS011;47427;51.976;5.326;2023-08-06T10:19:46;23.50;;;21.88;;
45402;SDS011;47427;51.976;5.326;2023-08-06T10:23:00;23.23;;;21.38;;
45402;SDS011;47427;51.976;5.326;2023-08-06T10:26:07;22.92;;;21.23;;
45402;SDS011;47427;51.976;5.326;2023-08-06T10:29:34;22.67;;;21.10;;
45402;SDS011;47427;51.976;5.326;2023-08-06T10:32:59;22.75;;;21.02;;
45402;SDS011;47427;51.976;5.326;2023-08-06T10:36:04;22.50;;;21.00;;
45402;SDS011;47427;51.976;5.326;2023-08-06T10:42:21;22.92;;;21.17;;
45402;SDS011;47427;51.976;5.326;2023-08-06T10:45:37;22.02;;;20.52;;
45402;SDS011;47427;51.976;5.326;2023-08-06T10:48:50;22.00;;;20.60;;
45402;SDS011;47427;51.976;5.326;2023-08-06T10:51:53;22.02;;;20.40;;
45402;SDS011;47427;51.976;5.326;2023-08-06T10:54:56;22.08;;;20.20;;
45402;SDS011;47427;51.976;5.326;2023-08-06T10:57:59;21.10;;;19.73;;
45402;SDS011;47427;51.976;5.326;2023-08-06T11:01:00;22.48;;;20.88;;
45402;SDS011;47427;51.976;5.326;2023-08-06T11:04:04;22.05;;;20.42;;
45402;SDS011;47427;51.976;5.326;2023-08-06T11:07:07;22.42;;;20.77;;
45402;SDS011;47427;51.976;5.326;2023-08-06T11:10:11;21.58;;;20.27;;
45402;SDS011;47427;51.976;5.326;2023-08-06T11:13:16;22.13;;;20.65;;
45402;SDS011;47427;51.976;5.326;2023-08-06T11:16:21;20.55;;;19.33;;
45402;SDS011;47427;51.976;5.326;2023-08-06T11:19:28;20.60;;;19.20;;
45402;SDS011;47427;51.976;5.326;2023-08-06T11:22:31;21.50;;;20.10;;
45402;SDS011;47427;51.976;5.326;2023-08-06T11:25:36;20.65;;;18.90;;
45402;SDS011;47427;51.976;5.326;2023-08-06T11:28:45;20.33;;;18.75;;
45402;SDS011;47427;51.976;5.326;2023-08-06T11:31:48;19.25;;;17.88;;
45402;SDS011;47427;51.976;5.326;2023-08-06T11:34:52;20.08;;;18.70;;
45402;SDS011;47427;51.976;5.326;2023-08-06T11:37:55;19.87;;;18.67;;
45402;SDS011;47427;51.976;5.326;2023-08-06T11:40:58;19.45;;;18.20;;
45402;SDS011;47427;51.976;5.326;2023-08-06T11:44:01;19.55;;;18.05;;
45402;SDS011;47427;51.976;5.326;2023-08-06T11:47:05;19.55;;;17.95;;
45402;SDS011;47427;51.976;5.326;2023-08-06T11:50:21;19.80;;;18.55;;
45402;SDS011;47427;51.976;5.326;2023-08-06T11:53:29;20.85;;;19.30;;
45402;SDS011;47427;51.976;5.326;2023-08-06T11:56:32;22.02;;;20.42;;
45402;SDS011;47427;51.976;5.326;2023-08-06T11:59:53;19.85;;;18.45;;
45402;SDS011;47427;51.976;5.326;2023-08-06T12:02:56;20.42;;;18.73;;
45402;SDS011;47427;51.976;5.326;2023-08-06T12:05:59;19.13;;;17.60;;
45402;SDS011;47427;51.976;5.326;2023-08-06T12:09:02;18.52;;;17.23;;
45402;SDS011;47427;51.976;5.326;2023-08-06T12:12:23;17.45;;;16.35;;
45402;SDS011;47427;51.976;5.326;2023-08-06T12:15:26;18.20;;;17.00;;
45402;SDS011;47427;51.976;5.326;2023-08-06T12:18:48;19.17;;;17.77;;
45402;SDS011;47427;51.976;5.326;2023-08-06T12:21:50;18.30;;;17.20;;
45402;SDS011;47427;51.976;5.326;2023-08-06T12:24:51;18.00;;;16.90;;
45402;SDS011;47427;51.976;5.326;2023-08-06T12:27:54;17.67;;;16.63;;
45402;SDS011;47427;51.976;5.326;2023-08-06T12:30:57;18.17;;;17.08;;
45402;SDS011;47427;51.976;5.326;2023-08-06T12:34:00;18.77;;;17.33;;
45402;SDS011;47427;51.976;5.326;2023-08-06T12:37:02;19.00;;;17.83;;
45402;SDS011;47427;51.976;5.326;2023-08-06T12:40:05;18.45;;;17.45;;
45402;SDS011;47427;51.976;5.326;2023-08-06T12:43:11;19.25;;;17.92;;
45402;SDS011;47427;51.976;5.326;2023-08-06T12:46:14;18.93;;;17.83;;
45402;SDS011;47427;51.976;5.326;2023-08-06T12:49:16;19.60;;;18.02;;
45402;SDS011;47427;51.976;5.326;2023-08-06T12:52:19;18.65;;;17.65;;
45402;SDS011;47427;51.976;5.326;2023-08-06T12:55:41;19.17;;;17.88;;
45402;SDS011;47427;51.976;5.326;2023-08-06T12:58:43;18.70;;;17.45;;
45402;SDS011;47427;51.976;5.326;2023-08-06T13:01:45;18.45;;;17.00;;
45402;SDS011;47427;51.976;5.326;2023-08-06T13:04:48;18.63;;;17.20;;
45402;SDS011;47427;51.976;5.326;2023-08-06T13:07:51;18.50;;;17.40;;
45402;SDS011;47427;51.976;5.326;2023-08-06T13:10:53;18.23;;;17.25;;
45402;SDS011;47427;51.976;5.326;2023-08-06T13:13:56;18.92;;;17.45;;
45402;SDS011;47427;51.976;5.326;2023-08-06T13:17:11;18.73;;;17.63;;
45402;SDS011;47427;51.976;5.326;2023-08-06T13:20:13;18.58;;;17.38;;
45402;SDS011;47427;51.976;5.326;2023-08-06T13:23:16;19.52;;;18.27;;
45402;SDS011;47427;51.976;5.326;2023-08-06T13:26:18;18.73;;;17.50;;
45402;SDS011;47427;51.976;5.326;2023-08-06T13:29:21;19.10;;;18.00;;
45402;SDS011;47427;51.976;5.326;2023-08-06T13:32:23;19.27;;;18.08;;
45402;SDS011;47427;51.976;5.326;2023-08-06T13:35:26;19.40;;;18.20;;
45402;SDS011;47427;51.976;5.326;2023-08-06T13:38:28;18.77;;;17.77;;
45402;SDS011;47427;51.976;5.326;2023-08-06T13:41:31;19.65;;;18.45;;
45402;SDS011;47427;51.976;5.326;2023-08-06T13:44:34;19.45;;;18.13;;
45402;SDS011;47427;51.976;5.326;2023-08-06T13:47:37;18.40;;;17.27;;
45402;SDS011;47427;51.976;5.326;2023-08-06T13:50:39;18.70;;;17.50;;
45402;SDS011;47427;51.976;5.326;2023-08-06T13:53:42;18.80;;;17.50;;
45402;SDS011;47427;51.976;5.326;2023-08-06T13:56:45;18.20;;;17.10;;
45402;SDS011;47427;51.976;5.326;2023-08-06T13:59:47;18.65;;;17.45;;
45402;SDS011;47427;51.976;5.326;2023-08-06T14:02:49;18.58;;;17.38;;
45402;SDS011;47427;51.976;5.326;2023-08-06T14:05:52;18.95;;;17.77;;
45402;SDS011;47427;51.976;5.326;2023-08-06T14:08:58;19.00;;;17.80;;
45402;SDS011;47427;51.976;5.326;2023-08-06T14:12:01;18.60;;;17.40;;
45402;SDS011;47427;51.976;5.326;2023-08-06T14:15:03;19.98;;;18.33;;
45402;SDS011;47427;51.976;5.326;2023-08-06T14:18:07;18.85;;;17.67;;
45402;SDS011;47427;51.976;5.326;2023-08-06T14:21:29;19.13;;;17.92;;
45402;SDS011;47427;51.976;5.326;2023-08-06T14:24:30;19.35;;;18.13;;
45402;SDS011;47427;51.976;5.326;2023-08-06T14:27:32;18.52;;;17.48;;
45402;SDS011;47427;51.976;5.326;2023-08-06T14:30:36;19.50;;;18.30;;
45402;SDS011;47427;51.976;5.326;2023-08-06T14:33:38;18.73;;;17.63;;
45402;SDS011;47427;51.976;5.326;2023-08-06T14:36:41;19.17;;;17.88;;
45402;SDS011;47427;51.976;5.326;2023-08-06T14:39:43;19.25;;;17.90;;
45402;SDS011;47427;51.976;5.326;2023-08-06T14:42:46;18.25;;;17.30;;
45402;SDS011;47427;51.976;5.326;2023-08-06T14:45:49;18.77;;;17.77;;
45402;SDS011;47427;51.976;5.326;2023-08-06T14:48:51;18.85;;;17.75;;
45402;SDS011;47427;51.976;5.326;2023-08-06T14:51:53;18.35;;;17.35;;
45402;SDS011;47427;51.976;5.326;2023-08-06T14:54:56;19.17;;;17.75;;
45402;SDS011;47427;51.976;5.326;2023-08-06T14:58:00;18.33;;;17.40;;
45402;SDS011;47427;51.976;5.326;2023-08-06T15:01:03;18.90;;;17.85;;
45402;SDS011;47427;51.976;5.326;2023-08-06T15:04:05;18.40;;;17.40;;
45402;SDS011;47427;51.976;5.326;2023-08-06T15:07:08;18.10;;;17.02;;
45402;SDS011;47427;51.976;5.326;2023-08-06T15:10:11;17.55;;;16.58;;
45402;SDS011;47427;51.976;5.326;2023-08-06T15:13:16;18.70;;;17.35;;
45402;SDS011;47427;51.976;5.326;2023-08-06T15:16:19;19.45;;;18.10;;
45402;SDS011;47427;51.976;5.326;2023-08-06T15:19:22;19.10;;;17.75;;
45402;SDS011;47427;51.976;5.326;2023-08-06T15:22:27;21.00;;;19.10;;
45402;SDS011;47427;51.976;5.326;2023-08-06T15:25:30;19.63;;;17.95;;
45402;SDS011;47427;51.976;5.326;2023-08-06T15:28:33;20.20;;;18.25;;
45402;SDS011;47427;51.976;5.326;2023-08-06T15:31:37;19.42;;;17.80;;
45402;SDS011;47427;51.976;5.326;2023-08-06T15:34:40;20.10;;;18.40;;
45402;SDS011;47427;51.976;5.326;2023-08-06T15:37:43;19.10;;;17.58;;
45402;SDS011;47427;51.976;5.326;2023-08-06T15:40:46;19.60;;;18.20;;
45402;SDS011;47427;51.976;5.326;2023-08-06T15:43:48;19.15;;;17.80;;
45402;SDS011;47427;51.976;5.326;2023-08-06T15:46:51;20.02;;;18.17;;
45402;SDS011;47427;51.976;5.326;2023-08-06T15:49:53;19.85;;;18.10;;
45402;SDS011;47427;51.976;5.326;2023-08-06T15:52:56;19.35;;;17.77;;
45402;SDS011;47427;51.976;5.326;2023-08-06T15:55:58;18.65;;;16.95;;
45402;SDS011;47427;51.976;5.326;2023-08-06T15:59:20;19.48;;;17.63;;
45402;SDS011;47427;51.976;5.326;2023-08-06T16:02:32;19.23;;;17.80;;
45402;SDS011;47427;51.976;5.326;2023-08-06T16:05:35;18.85;;;17.27;;
45402;SDS011;47427;51.976;5.326;2023-08-06T16:08:37;20.35;;;18.45;;
45402;SDS011;47427;51.976;5.326;2023-08-06T16:11:40;19.63;;;18.10;;
45402;SDS011;47427;51.976;5.326;2023-08-06T16:14:44;19.63;;;17.75;;
45402;SDS011;47427;51.976;5.326;2023-08-06T16:17:50;20.08;;;17.95;;
45402;SDS011;47427;51.976;5.326;2023-08-06T16:20:51;19.35;;;17.50;;
45402;SDS011;47427;51.976;5.326;2023-08-06T16:23:55;19.25;;;17.80;;
45402;SDS011;47427;51.976;5.326;2023-08-06T16:26:58;19.83;;;17.67;;
45402;SDS011;47427;51.976;5.326;2023-08-06T16:30:01;19.00;;;17.08;;
45402;SDS011;47427;51.976;5.326;2023-08-06T16:33:03;19.33;;;17.73;;
45402;SDS011;47427;51.976;5.326;2023-08-06T16:36:06;19.33;;;17.70;;
45402;SDS011;47427;51.976;5.326;2023-08-06T16:39:09;20.75;;;18.38;;
45402;SDS011;47427;51.976;5.326;2023-08-06T16:42:11;20.27;;;18.15;;
45402;SDS011;47427;51.976;5.326;2023-08-06T16:45:13;19.45;;;17.60;;
45402;SDS011;47427;51.976;5.326;2023-08-06T16:48:16;20.23;;;17.73;;
45402;SDS011;47427;51.976;5.326;2023-08-06T16:51:18;19.70;;;18.00;;
45402;SDS011;47427;51.976;5.326;2023-08-06T16:54:21;20.10;;;18.08;;
45402;SDS011;47427;51.976;5.326;2023-08-06T16:57:23;19.58;;;17.67;;
45402;SDS011;47427;51.976;5.326;2023-08-06T17:00:26;20.45;;;18.13;;
45402;SDS011;47427;51.976;5.326;2023-08-06T17:03:29;19.83;;;17.88;;
45402;SDS011;47427;51.976;5.326;2023-08-06T17:06:33;19.80;;;18.08;;
45402;SDS011;47427;51.976;5.326;2023-08-06T17:09:34;21.15;;;19.15;;
45402;SDS011;47427;51.976;5.326;2023-08-06T17:12:37;20.83;;;18.40;;
45402;SDS011;47427;51.976;5.326;2023-08-06T17:15:41;19.63;;;17.67;;
45402;SDS011;47427;51.976;5.326;2023-08-06T17:18:44;19.42;;;17.42;;
45402;SDS011;47427;51.976;5.326;2023-08-06T17:21:46;19.83;;;18.02;;
45402;SDS011;47427;51.976;5.326;2023-08-06T17:24:49;18.80;;;17.25;;
45402;SDS011;47427;51.976;5.326;2023-08-06T17:27:51;19.00;;;17.10;;
45402;SDS011;47427;51.976;5.326;2023-08-06T17:30:54;18.88;;;17.23;;
45402;SDS011;47427;51.976;5.326;2023-08-06T17:33:57;18.48;;;16.77;;
45402;SDS011;47427;51.976;5.326;2023-08-06T17:36:59;18.55;;;17.05;;
45402;SDS011;47427;51.976;5.326;2023-08-06T17:40:04;18.85;;;17.33;;
45402;SDS011;47427;51.976;5.326;2023-08-06T17:43:09;19.53;;;17.30;;
45402;SDS011;47427;51.976;5.326;2023-08-06T17:46:13;21.25;;;17.30;;
45402;SDS011;47427;51.976;5.326;2023-08-06T17:49:16;18.60;;;17.08;;
45402;SDS011;47427;51.976;5.326;2023-08-06T17:52:19;19.55;;;17.63;;
45402;SDS011;47427;51.976;5.326;2023-08-06T17:55:40;24.15;;;17.88;;
45402;SDS011;47427;51.976;5.326;2023-08-06T17:58:43;24.08;;;19.73;;
45402;SDS011;47427;51.976;5.326;2023-08-06T18:01:45;18.77;;;16.80;;
45402;SDS011;47427;51.976;5.326;2023-08-06T18:04:48;18.58;;;16.85;;
45402;SDS011;47427;51.976;5.326;2023-08-06T18:07:51;19.15;;;17.42;;
45402;SDS011;47427;51.976;5.326;2023-08-06T18:10:53;21.48;;;17.40;;
45402;SDS011;47427;51.976;5.326;2023-08-06T18:13:56;22.08;;;17.70;;
45402;SDS011;47427;51.976;5.326;2023-08-06T18:16:59;19.45;;;17.58;;
45402;SDS011;47427;51.976;5.326;2023-08-06T18:20:02;21.65;;;18.00;;